Terminal Aerodrome Forecast
Issued by NWS Missoula, MT

Home | Current Version | Previous Version | Text Only | Print | Product List | Glossary On
Versions: 1 2 3 4 5 6 7 8 9 10 11 12 13 14 15 16 17 18 19
000
FTUS45 KMSO 262324
TAFBTM
TAF
KBTM 262324Z 2700/2724 VRB06KT P6SM VCSH BKN050 OVC060
     FM270600 31010G25KT 3SM -SHSN BKN020 OVC030
     FM270900 33010KT P6SM VCSH BKN100
     FM271800 31010G20KT P6SM BKN050=

USA.gov is the U.S. government's official web portal to all federal, state and local government web resources and services.